createdAt,value
2022-08-16T00:01:14.303Z,95949.63
2022-08-16T00:03:40.928Z,95942.06
2022-08-16T00:06:07.580Z,95944.94
2022-08-16T00:08:36.816Z,95944.56
2022-08-16T00:11:06.093Z,95946.53
2022-08-16T00:13:33.765Z,95944.75
2022-08-16T00:17:05.688Z,95945.78
2022-08-16T00:18:55.306Z,95947.06
2022-08-16T00:21:22.968Z,95947.03
2022-08-16T00:23:49.396Z,95959.31
2022-08-16T00:26:35.446Z,95950.72
2022-08-16T00:29:02.088Z,95953.34
2022-08-16T00:31:58.944Z,95954.78
2022-08-16T00:34:19.595Z,95962.25
2022-08-16T00:36:47.078Z,95954.75
2022-08-16T00:39:15.757Z,95958.66
2022-08-16T00:41:44.697Z,95953.56
2022-08-16T00:44:14.264Z,95962.25
2022-08-16T00:46:52.964Z,95962.50
2022-08-16T00:49:39.796Z,95971.78
2022-08-16T00:52:29.451Z,95967.53
2022-08-16T00:54:56.841Z,95963.84
2022-08-16T00:57:23.959Z,95967.94
2022-08-16T00:59:59.057Z,95970.00
2022-08-16T01:02:31.980Z,95972.47
2022-08-16T01:05:09.009Z,95980.63
2022-08-16T01:07:51.351Z,95981.88
2022-08-16T01:10:31.507Z,95974.09
2022-08-16T01:13:00.401Z,95982.06
2022-08-16T01:15:28.036Z,95979.44
2022-08-16T01:17:57.484Z,95985.34
2022-08-16T01:20:30.404Z,95977.94
2022-08-16T01:23:58.121Z,95980.22
2022-08-16T01:26:33.799Z,95978.81
2022-08-16T01:29:06.545Z,95982.25
2022-08-16T01:31:37.542Z,95983.28
2022-08-16T01:34:25.164Z,95974.88
2022-08-16T01:37:03.837Z,95976.06
2022-08-16T01:39:31.580Z,95977.75
2022-08-16T01:42:02.923Z,95980.81
2022-08-16T01:44:37.736Z,95982.28
2022-08-16T01:47:05.305Z,95981.22
2022-08-16T01:49:45.375Z,95978.56
2022-08-16T01:52:28.283Z,95975.28
2022-08-16T01:54:57.595Z,95974.44
2022-08-16T01:57:24.730Z,95969.13
2022-08-16T01:59:54.544Z,95966.66
2022-08-16T02:02:27.145Z,95972.84
2022-08-16T02:04:54.997Z,95968.72
2022-08-16T02:07:23.711Z,95971.38
2022-08-16T02:09:56.928Z,95969.09
2022-08-16T02:12:51.585Z,95961.97
2022-08-16T02:15:14.211Z,95966.50
2022-08-16T02:17:40.564Z,95961.41
2022-08-16T02:20:11.632Z,95960.97
2022-08-16T02:22:38.854Z,95963.06
2022-08-16T02:25:10.296Z,95965.53
2022-08-16T02:27:40.940Z,95970.69
2022-08-16T02:30:36.747Z,95969.66
2022-08-16T02:33:03.120Z,95972.72
2022-08-16T02:35:30.391Z,95969.66
2022-08-16T02:37:56.810Z,95963.72
2022-08-16T02:40:29.017Z,95966.56
2022-08-16T02:42:55.891Z,95962.28
2022-08-16T02:45:28.078Z,95956.97
2022-08-16T02:48:00.965Z,95950.00
2022-08-16T02:50:54.952Z,95946.72
2022-08-16T02:53:28.557Z,95946.31
2022-08-16T02:55:56.299Z,95949.19
2022-08-16T02:58:25.412Z,95936.09
2022-08-16T03:00:55.754Z,95937.72
2022-08-16T03:03:22.844Z,95940.59
2022-08-16T03:05:52.497Z,95930.75
2022-08-16T03:08:50.430Z,95926.44
2022-08-16T03:11:16.653Z,95926.66
2022-08-16T03:13:50.634Z,95933.38
2022-08-16T03:16:38.789Z,95924.13
2022-08-16T03:19:07.489Z,95934.38
2022-08-16T03:21:37.755Z,95920.69
2022-08-16T03:24:05.379Z,95913.75
2022-08-16T03:26:32.038Z,95908.66
2022-08-16T03:28:58.507Z,95903.94
2022-08-16T03:31:26.440Z,95909.88
2022-08-16T03:34:01.261Z,95912.13
2022-08-16T03:36:30.615Z,95914.78
2022-08-16T03:38:57.833Z,95909.44
2022-08-16T03:41:29.291Z,95913.94
2022-08-16T03:44:01.724Z,95905.75
2022-08-16T03:46:47.195Z,95911.31
2022-08-16T03:49:15.108Z,95908.66
2022-08-16T03:51:42.490Z,95908.22
2022-08-16T03:54:12.740Z,95909.47
2022-08-16T03:56:39.740Z,95908.66
2022-08-16T03:59:23.837Z,95906.41
2022-08-16T04:01:50.188Z,95909.06
2022-08-16T04:04:32.401Z,95910.28
2022-08-16T04:07:00.424Z,95909.88
2022-08-16T04:09:30.139Z,95907.44
2022-08-16T04:11:56.615Z,95906.00
2022-08-16T04:14:31.141Z,95903.09
2022-08-16T04:17:00.878Z,95907.81
2022-08-16T04:19:31.809Z,95903.28
2022-08-16T04:21:58.521Z,95920.44
2022-08-16T04:24:28.811Z,95913.50
2022-08-16T04:26:55.626Z,95922.50
2022-08-16T04:29:24.942Z,95926.19
2022-08-16T04:31:56.590Z,95917.00
2022-08-16T04:34:31.139Z,95917.41
2022-08-16T04:37:01.258Z,95912.91
2022-08-16T04:39:44.915Z,95912.28
2022-08-16T04:42:15.414Z,95912.09
2022-08-16T04:44:54.421Z,95923.34
2022-08-16T04:47:31.533Z,95918.44
2022-08-16T04:49:59.397Z,95923.16
2022-08-16T04:52:33.748Z,95923.94
2022-08-16T04:55:13.928Z,95936.38
2022-08-16T04:57:42.621Z,95929.66
2022-08-16T05:00:30.628Z,95928.66
2022-08-16T05:03:07.032Z,95939.03
2022-08-16T05:05:44.929Z,95938.03
2022-08-16T05:08:27.961Z,95942.13
2022-08-16T05:11:05.538Z,95929.91
2022-08-16T05:13:41.694Z,95930.34
2022-08-16T05:16:16.753Z,95928.88
2022-08-16T05:18:47.888Z,95929.09
2022-08-16T05:21:14.424Z,95926.22
2022-08-16T05:23:40.907Z,95932.94
2022-08-16T05:26:19.506Z,95933.19
2022-08-16T05:28:55.227Z,95921.72
2022-08-16T05:31:23.034Z,95920.88
2022-08-16T05:33:53.447Z,95920.06
2022-08-16T05:36:21.366Z,95920.50
2022-08-16T05:38:48.798Z,95924.78
2022-08-16T05:41:15.442Z,95937.44
2022-08-16T05:43:46.895Z,95922.13
2022-08-16T05:46:30.502Z,95931.75
2022-08-16T05:49:08.827Z,95947.25
2022-08-16T05:51:41.599Z,95942.38
2022-08-16T05:54:09.627Z,95943.56
2022-08-16T05:56:39.215Z,95945.03
2022-08-16T05:59:06.379Z,95946.66
2022-08-16T06:01:38.966Z,95945.84
2022-08-16T06:04:12.936Z,95941.38
2022-08-16T06:06:55.690Z,95944.47
2022-08-16T06:09:25.148Z,95936.91
2022-08-16T06:11:52.179Z,95940.81
2022-08-16T06:14:19.254Z,95941.81
2022-08-16T06:16:50.996Z,95936.91
2022-08-16T06:19:17.895Z,95935.44
2022-08-16T06:21:44.736Z,95943.44
2022-08-16T06:24:52.823Z,95942.44
2022-08-16T06:26:58.532Z,95937.69
2022-08-16T06:29:25.074Z,95943.44
2022-08-16T06:31:51.889Z,95935.25
2022-08-16T06:34:56.149Z,95934.44
2022-08-16T06:37:04.874Z,95945.03
2022-08-16T06:39:31.674Z,95953.19
2022-08-16T06:42:01.115Z,95941.78
2022-08-16T06:44:27.605Z,95941.22
2022-08-16T06:46:54.192Z,95941.19
2022-08-16T06:49:20.596Z,95939.94
2022-08-16T06:51:48.436Z,95945.72
2022-08-16T06:54:16.110Z,95942.63
2022-08-16T06:56:42.653Z,95944.84
2022-08-16T06:59:10.625Z,95957.97
2022-08-16T07:01:46.173Z,95946.69
2022-08-16T07:04:31.568Z,95946.63
2022-08-16T07:07:00.776Z,95950.50
2022-08-16T07:09:29.771Z,95955.59
2022-08-16T07:12:03.687Z,95954.88
2022-08-16T07:14:30.803Z,95944.41
2022-08-16T07:16:58.287Z,95949.31
2022-08-16T07:20:03.812Z,95943.94
2022-08-16T07:22:37.345Z,95952.94
2022-08-16T07:24:59.210Z,95945.91
2022-08-16T07:27:25.707Z,95948.13
2022-08-16T07:29:55.533Z,95947.47
2022-08-16T07:32:29.603Z,95944.50
2022-08-16T07:34:58.166Z,95944.56
2022-08-16T07:37:24.824Z,95939.16
2022-08-16T07:39:51.891Z,95943.78
2022-08-16T07:42:20.373Z,95942.75
2022-08-16T07:44:55.505Z,95946.31
2022-08-16T07:47:24.607Z,95946.06
2022-08-16T07:49:58.302Z,95950.25
2022-08-16T07:52:25.005Z,95953.19
2022-08-16T07:54:57.203Z,95958.44
2022-08-16T07:57:24.196Z,95953.97
2022-08-16T07:59:50.924Z,95963.78
2022-08-16T08:02:20.605Z,95971.53
2022-08-16T08:04:47.625Z,95963.72
2022-08-16T08:07:16.283Z,95967.09
2022-08-16T08:09:43.365Z,95960.22
2022-08-16T08:12:10.008Z,95959.63
2022-08-16T08:14:56.377Z,95959.94
2022-08-16T08:17:22.839Z,95956.59
2022-08-16T08:19:53.252Z,95958.34
2022-08-16T08:22:22.337Z,95963.44
2022-08-16T08:24:52.137Z,95962.91
2022-08-16T08:27:22.410Z,95966.47
2022-08-16T08:30:49.681Z,95962.53
2022-08-16T08:32:58.311Z,95969.03
2022-08-16T08:35:26.871Z,95964.00
2022-08-16T08:37:56.554Z,95966.94
2022-08-16T08:40:26.739Z,95968.13
2022-08-16T08:43:00.123Z,95967.22
2022-08-16T08:45:53.665Z,95962.75
2022-08-16T08:48:33.271Z,95970.78
2022-08-16T08:51:03.722Z,95956.84
2022-08-16T08:53:30.847Z,95958.44
2022-08-16T08:55:58.898Z,95970.78
2022-08-16T08:58:26.035Z,95968.25
2022-08-16T09:01:01.771Z,95963.84
2022-08-16T09:03:29.235Z,95970.84
2022-08-16T09:05:59.207Z,95966.44
2022-08-16T09:08:27.363Z,95962.94
2022-08-16T09:11:02.421Z,95966.09
2022-08-16T09:13:32.697Z,95965.94
2022-08-16T09:16:00.091Z,95966.84
2022-08-16T09:18:35.779Z,95959.41
2022-08-16T09:21:06.937Z,95961.25
2022-08-16T09:23:36.471Z,95960.44
2022-08-16T09:26:43.977Z,95968.13
2022-08-16T09:29:14.554Z,95958.94
2022-08-16T09:31:41.924Z,95955.63
2022-08-16T09:34:09.203Z,95948.66
2022-08-16T09:36:37.477Z,95953.75
2022-08-16T09:39:15.826Z,95950.63
2022-08-16T09:41:43.343Z,95953.09
2022-08-16T09:45:13.146Z,95949.91
2022-08-16T09:47:12.836Z,95951.72
2022-08-16T09:49:40.966Z,95944.16
2022-08-16T09:52:09.477Z,95949.25
2022-08-16T09:54:37.205Z,95948.56
2022-08-16T09:57:04.614Z,95953.66
2022-08-16T09:59:31.326Z,95956.69
2022-08-16T10:02:26.069Z,95946.88
2022-08-16T10:04:54.443Z,95942.91
2022-08-16T10:07:21.851Z,95946.31
2022-08-16T10:09:55.833Z,95951.25
2022-08-16T10:12:55.645Z,95950.81
2022-08-16T10:15:22.633Z,95952.50
2022-08-16T10:18:01.052Z,95942.78
2022-08-16T10:20:34.508Z,95942.13
2022-08-16T10:23:07.537Z,95944.22
2022-08-16T10:27:17.756Z,95952.50
2022-08-16T10:28:28.636Z,95943.06
2022-08-16T10:30:56.558Z,95946.53
2022-08-16T10:33:27.297Z,95943.00
2022-08-16T10:36:02.625Z,95945.78
2022-08-16T10:38:30.337Z,95944.06
2022-08-16T10:41:00.289Z,95932.44
2022-08-16T10:43:27.684Z,95926.84
2022-08-16T10:46:00.201Z,95939.94
2022-08-16T10:48:28.676Z,95940.41
2022-08-16T10:50:58.484Z,95940.88
2022-08-16T10:53:33.114Z,95932.63
2022-08-16T10:56:52.833Z,95936.47
2022-08-16T10:58:57.655Z,95944.88
2022-08-16T11:02:21.705Z,95946.50
2022-08-16T11:10:20.951Z,95934.00
2022-08-16T11:12:52.630Z,95941.09
2022-08-16T11:15:20.183Z,95946.34
2022-08-16T11:18:47.889Z,95934.19
2022-08-16T11:20:41.938Z,95927.09
2022-08-16T11:23:09.820Z,95934.41
2022-08-16T11:31:10.879Z,95932.13
2022-08-16T11:33:55.523Z,95937.38
2022-08-16T11:36:28.041Z,95923.06
2022-08-16T11:38:57.734Z,95913.81
2022-08-16T11:41:24.711Z,95915.81
2022-08-16T11:43:52.923Z,95914.13
2022-08-16T11:46:43.461Z,95921.06
2022-08-16T11:49:12.703Z,95926.19
2022-08-16T11:51:43.710Z,95910.91
2022-08-16T11:54:20.582Z,95919.00
2022-08-16T11:56:57.341Z,95910.28
2022-08-16T11:59:28.703Z,95908.34
2022-08-16T12:02:04.165Z,95911.88
2022-08-16T12:04:45.505Z,95900.78
2022-08-16T12:07:18.755Z,95903.38
2022-08-16T12:09:45.523Z,95903.69
2022-08-16T12:12:12.240Z,95894.25
2022-08-16T12:14:38.607Z,95901.03
2022-08-16T12:17:08.306Z,95884.63
2022-08-16T12:19:35.940Z,95885.25
2022-08-16T12:22:05.553Z,95885.94
2022-08-16T12:24:32.862Z,95883.00
2022-08-16T12:27:00.023Z,95893.31
2022-08-16T12:29:29.461Z,95888.75
2022-08-16T12:31:59.240Z,95876.59
2022-08-16T12:34:29.590Z,95891.91
2022-08-16T12:36:56.462Z,95880.53
2022-08-16T12:39:23.769Z,95881.50
2022-08-16T12:41:56.211Z,95877.66
2022-08-16T12:44:25.783Z,95876.94
2022-08-16T12:47:11.262Z,95882.47
2022-08-16T12:49:42.268Z,95875.47
2022-08-16T12:52:08.983Z,95871.16
2022-08-16T12:54:37.309Z,95875.97
2022-08-16T12:57:08.313Z,95871.41
2022-08-16T12:59:40.539Z,95876.38
2022-08-16T13:02:07.782Z,95874.25
2022-08-16T13:04:39.245Z,95866.44
2022-08-16T13:07:08.376Z,95860.75
2022-08-16T13:09:42.626Z,95862.66
2022-08-16T13:12:19.598Z,95853.78
2022-08-16T13:14:48.011Z,95860.53
2022-08-16T13:17:23.036Z,95862.97
2022-08-16T13:20:11.286Z,95857.31
2022-08-16T13:22:42.088Z,95859.97
2022-08-16T13:25:18.966Z,95861.88
2022-08-16T13:28:01.622Z,95855.91
2022-08-16T13:30:37.358Z,95848.56
2022-08-16T13:33:12.387Z,95850.47
2022-08-16T13:35:43.064Z,95843.97
2022-08-16T13:38:10.278Z,95846.91
2022-08-16T13:40:48.527Z,95848.88
2022-08-16T13:43:17.871Z,95841.03
2022-08-16T13:45:44.867Z,95840.78
2022-08-16T13:48:11.524Z,95842.13
2022-08-16T13:50:51.890Z,95837.56
2022-08-16T13:53:18.803Z,95841.88
2022-08-16T13:55:58.957Z,95839.72
2022-08-16T13:58:34.759Z,95835.16
2022-08-16T14:01:04.640Z,95835.41
2022-08-16T14:03:36.787Z,95832.97
2022-08-16T14:06:03.633Z,95835.59
2022-08-16T14:08:30.047Z,95832.31
2022-08-16T14:10:56.823Z,95824.19
2022-08-16T14:13:23.783Z,95826.84
2022-08-16T14:15:50.633Z,95823.28
2022-08-16T14:18:20.680Z,95824.88
2022-08-16T14:20:48.847Z,95822.94
2022-08-16T14:23:17.971Z,95814.72
2022-08-16T14:25:54.036Z,95820.03
2022-08-16T14:28:21.953Z,95810.88
2022-08-16T14:30:50.497Z,95818.78
2022-08-16T14:33:18.286Z,95814.16
2022-08-16T14:35:48.995Z,95819.59
2022-08-16T14:38:18.777Z,95817.13
2022-08-16T14:40:50.969Z,95818.53
2022-08-16T14:43:19.913Z,95811.47
2022-08-16T14:45:46.981Z,95813.09
2022-08-16T14:48:20.329Z,95807.69
2022-08-16T14:50:51.086Z,95801.09
2022-08-16T14:53:18.134Z,95804.78
2022-08-16T14:55:44.491Z,95806.84
2022-08-16T14:58:19.283Z,95794.31
2022-08-16T15:00:47.679Z,95797.41
2022-08-16T15:03:17.945Z,95799.44
2022-08-16T15:05:44.295Z,95792.16
2022-08-16T15:08:11.364Z,95799.22
2022-08-16T15:10:42.749Z,95796.22
2022-08-16T15:13:12.783Z,95792.97
2022-08-16T15:15:41.920Z,95794.13
2022-08-16T15:18:12.084Z,95789.00
2022-08-16T15:20:39.440Z,95790.03
2022-08-16T15:23:08.435Z,95784.59
2022-08-16T15:25:36.704Z,95790.72
2022-08-16T15:28:23.417Z,95793.53
2022-08-16T15:30:59.693Z,95785.59
2022-08-16T15:33:27.213Z,95784.88
2022-08-16T15:35:55.489Z,95779.16
2022-08-16T15:38:55.179Z,95784.94
2022-08-16T15:41:13.342Z,95780.75
2022-08-16T15:43:40.403Z,95782.31
2022-08-16T15:46:35.002Z,95778.72
2022-08-16T15:49:09.461Z,95774.75
2022-08-16T15:51:36.807Z,95778.44
2022-08-16T15:54:21.191Z,95767.84
2022-08-16T15:56:54.894Z,95770.50
2022-08-16T15:59:24.027Z,95768.06
2022-08-16T16:01:54.483Z,95774.75
2022-08-16T16:04:23.099Z,95773.66
2022-08-16T16:06:55.009Z,95780.44
2022-08-16T16:09:26.224Z,95777.09
2022-08-16T16:12:16.223Z,95775.53
2022-08-16T16:14:51.384Z,95784.88
2022-08-16T16:17:17.793Z,95781.72
2022-08-16T16:19:44.196Z,95771.88
2022-08-16T16:22:10.816Z,95776.59
2022-08-16T16:24:39.761Z,95775.31
2022-08-16T16:27:06.701Z,95772.38
2022-08-16T16:29:37.195Z,95770.53
2022-08-16T16:32:07.585Z,95773.16
2022-08-16T16:34:35.374Z,95767.91
2022-08-16T16:37:02.554Z,95771.13
2022-08-16T16:39:31.682Z,95764.41
2022-08-16T16:41:59.426Z,95769.94
2022-08-16T16:44:33.839Z,95770.94
2022-08-16T16:47:03.219Z,95756.94
2022-08-16T16:49:29.645Z,95754.09
2022-08-16T16:52:06.433Z,95754.31
2022-08-16T16:54:35.425Z,95752.75
2022-08-16T16:57:02.167Z,95759.88
2022-08-16T16:59:28.768Z,95758.94
2022-08-16T17:02:38.180Z,95753.53
2022-08-16T17:04:43.605Z,95749.34
2022-08-16T17:07:11.080Z,95750.44
2022-08-16T17:09:40.520Z,95754.34
2022-08-16T17:12:08.318Z,95744.47
2022-08-16T17:14:35.520Z,95741.16
2022-08-16T17:17:08.612Z,95752.59
2022-08-16T17:19:41.252Z,95740.97
2022-08-16T17:22:19.743Z,95742.81
2022-08-16T17:24:50.207Z,95742.63
2022-08-16T17:27:19.327Z,95743.63
2022-08-16T17:30:15.606Z,95742.75
2022-08-16T17:32:48.009Z,95734.59
2022-08-16T17:35:19.190Z,95741.28
2022-08-16T17:37:51.531Z,95740.91
2022-08-16T17:40:30.181Z,95750.81
2022-08-16T17:43:10.124Z,95750.38
2022-08-16T17:45:38.293Z,95756.75
2022-08-16T17:48:05.402Z,95757.22
2022-08-16T17:50:32.759Z,95755.72
2022-08-16T17:53:00.654Z,95757.72
2022-08-16T17:55:31.241Z,95758.63
2022-08-16T17:57:57.902Z,95764.44
2022-08-16T18:00:25.876Z,95759.88
2022-08-16T18:02:57.991Z,95762.34
2022-08-16T18:05:27.079Z,95772.59
2022-08-16T18:07:53.909Z,95757.63
2022-08-16T18:10:32.658Z,95754.47
2022-08-16T18:13:01.073Z,95756.69
2022-08-16T18:15:27.860Z,95763.28
2022-08-16T18:17:54.657Z,95755.50
2022-08-16T18:20:42.214Z,95765.13
2022-08-16T18:23:26.787Z,95765.50
2022-08-16T18:25:56.868Z,95770.94
2022-08-16T18:28:24.263Z,95769.81
2022-08-16T18:30:52.349Z,95766.88
2022-08-16T18:33:20.971Z,95773.44
2022-08-16T18:35:47.611Z,95774.41
2022-08-16T18:38:14.275Z,95770.44
2022-08-16T18:40:41.894Z,95773.81
2022-08-16T18:43:13.338Z,95770.66
2022-08-16T18:45:42.215Z,95771.22
2022-08-16T18:48:10.722Z,95782.16
2022-08-16T18:51:03.120Z,95782.75
2022-08-16T18:53:27.983Z,95782.03
2022-08-16T18:55:57.082Z,95782.84
2022-08-16T18:58:24.578Z,95792.69
2022-08-16T19:00:56.697Z,95792.19
2022-08-16T19:03:30.084Z,95795.06
2022-08-16T19:06:04.464Z,95794.22
2022-08-16T19:08:31.616Z,95797.78
2022-08-16T19:10:58.032Z,95795.72
2022-08-16T19:13:26.839Z,95794.09
2022-08-16T19:15:55.933Z,95803.94
2022-08-16T19:18:25.087Z,95799.97
2022-08-16T19:20:54.507Z,95807.81
2022-08-16T19:23:24.512Z,95806.22
2022-08-16T19:25:57.159Z,95816.28
2022-08-16T19:28:57.910Z,95811.69
2022-08-16T19:31:29.240Z,95806.81
2022-08-16T19:33:56.638Z,95811.69
2022-08-16T19:36:31.068Z,95806.84
2022-08-16T19:39:05.471Z,95812.25
2022-08-16T19:41:34.330Z,95812.84
2022-08-16T19:44:00.711Z,95807.47
2022-08-16T19:46:27.061Z,95802.91
2022-08-16T19:48:53.409Z,95808.63
2022-08-16T19:51:19.778Z,95802.41
2022-08-16T19:53:46.133Z,95812.41
2022-08-16T19:56:12.574Z,95809.13
2022-08-16T19:58:47.352Z,95804.75
2022-08-16T20:01:25.318Z,95806.81
2022-08-16T20:03:51.876Z,95809.00
2022-08-16T20:06:38.086Z,95811.91
2022-08-16T20:09:04.937Z,95803.44
2022-08-16T20:11:31.479Z,95810.00
2022-08-16T20:13:58.088Z,95813.78
2022-08-16T20:16:24.502Z,95808.75
2022-08-16T20:18:51.170Z,95818.78
2022-08-16T20:21:18.043Z,95820.31
2022-08-16T20:23:44.463Z,95825.19
2022-08-16T20:26:10.799Z,95821.53
2022-08-16T20:28:51.684Z,95830.63
2022-08-16T20:31:19.806Z,95827.41
2022-08-16T20:33:46.382Z,95819.53
2022-08-16T20:36:16.102Z,95826.81
2022-08-16T20:38:45.733Z,95827.41
2022-08-16T20:41:12.450Z,95837.03
2022-08-16T20:43:38.886Z,95834.91
2022-08-16T20:46:05.397Z,95840.28
2022-08-16T20:48:31.721Z,95827.53
2022-08-16T20:50:58.108Z,95830.00
2022-08-16T20:53:24.440Z,95822.97
2022-08-16T20:55:50.867Z,95833.47
2022-08-16T20:58:17.198Z,95835.22
2022-08-16T21:00:45.255Z,95835.22
2022-08-16T21:03:13.007Z,95838.47
2022-08-16T21:05:39.508Z,95833.50
2022-08-16T21:08:37.797Z,95842.06
2022-08-16T21:10:52.524Z,95843.06
2022-08-16T21:13:20.925Z,95844.69
2022-08-16T21:15:47.479Z,95851.72
2022-08-16T21:18:13.811Z,95847.28
2022-08-16T21:20:40.215Z,95849.13
2022-08-16T21:23:08.695Z,95841.25
2022-08-16T21:25:36.402Z,95847.16
2022-08-16T21:28:38.677Z,95843.06
2022-08-16T21:30:52.335Z,95852.50
2022-08-16T21:33:19.702Z,95863.47
2022-08-16T21:35:47.739Z,95861.84
2022-08-16T21:38:29.857Z,95861.34
2022-08-16T21:40:57.038Z,95856.25
2022-08-16T21:43:25.278Z,95852.09
2022-08-16T21:45:54.176Z,95861.34
2022-08-16T21:48:34.392Z,95852.22
2022-08-16T21:51:06.122Z,95851.81
2022-08-16T21:53:33.145Z,95860.75
2022-08-16T21:56:00.787Z,95863.13
2022-08-16T21:58:27.514Z,95865.84
2022-08-16T22:00:53.839Z,95860.69
2022-08-16T22:03:20.993Z,95872.56
2022-08-16T22:06:11.661Z,95868.97
2022-08-16T22:08:35.673Z,95866.34
2022-08-16T22:11:12.205Z,95873.84
2022-08-16T22:13:38.661Z,95871.00
2022-08-16T22:16:07.481Z,95863.00
2022-08-16T22:18:33.836Z,95875.06
2022-08-16T22:21:00.191Z,95873.25
2022-08-16T22:23:26.767Z,95874.47
2022-08-16T22:25:55.014Z,95871.47
2022-08-16T22:28:22.778Z,95866.44
2022-08-16T22:30:49.732Z,95869.59
2022-08-16T22:33:19.607Z,95878.22
2022-08-16T22:36:12.717Z,95878.69
2022-08-16T22:38:56.254Z,95879.06
2022-08-16T22:41:24.765Z,95872.88
2022-08-16T22:43:51.395Z,95869.69
2022-08-16T22:46:19.292Z,95867.50
2022-08-16T22:48:45.789Z,95860.97
2022-08-16T22:51:12.955Z,95861.88
2022-08-16T22:53:39.356Z,95867.13
2022-08-16T22:56:05.911Z,95864.03
2022-08-16T22:58:36.362Z,95863.94
2022-08-16T23:01:04.353Z,95865.06
2022-08-16T23:03:30.853Z,95868.84
2022-08-16T23:06:00.275Z,95864.56
2022-08-16T23:08:38.676Z,95862.28
2022-08-16T23:11:20.775Z,95861.91
2022-08-16T23:13:53.185Z,95865.69
2022-08-16T23:16:33.629Z,95857.53
2022-08-16T23:19:09.593Z,95851.22
2022-08-16T23:21:38.081Z,95853.34
2022-08-16T23:24:06.394Z,95856.28
2022-08-16T23:26:47.312Z,95847.06
2022-08-16T23:29:24.013Z,95846.50
2022-08-16T23:31:55.795Z,95849.09
2022-08-16T23:34:22.579Z,95842.00
2022-08-16T23:36:48.977Z,95834.81
2022-08-16T23:39:15.445Z,95839.25
2022-08-16T23:41:41.967Z,95833.22
2022-08-16T23:44:57.429Z,95840.19
2022-08-16T23:46:55.214Z,95838.19
2022-08-16T23:50:01.897Z,95849.91
2022-08-16T23:52:10.048Z,95848.16
2022-08-16T23:54:36.701Z,95847.22
2022-08-16T23:57:03.449Z,95847.91
2022-08-16T23:59:29.832Z,95844.75
